Time;durP1;ratioP1;P1;durP2;ratioP2;P2;SDS_P1;SDS_P2;PMS_P1;PMS_P2;Temp;Humidity;BMP_temperature;BMP_pressure;BME280_temperature;BME280_humidity;BME280_pressure;Samples;Min_cycle;Max_cycle;Signal;HPM_P1;HPM_P2
2023/01/16 00:00:19;;;;;;;13.10;3.40;;;;;;;2.42;100.00;99461.50;5037851;28;20068;-73
2023/01/16 00:02:45;;;;;;;13.50;3.58;;;;;;;2.31;100.00;99453.50;5055800;28;20107;-73
2023/01/16 00:05:10;;;;;;;14.35;3.75;;;;;;;2.34;100.00;99452.69;5037994;28;20051;-73
2023/01/16 00:07:35;;;;;;;10.38;3.47;;;;;;;2.24;100.00;99444.72;5055678;28;20055;-74
2023/01/16 00:10:02;;;;;;;12.40;3.50;;;;;;;2.17;100.00;99444.59;5055486;28;20060;-73
2023/01/16 00:12:27;;;;;;;13.82;3.65;;;;;;;2.13;100.00;99434.97;5055756;28;20044;-73
2023/01/16 00:14:53;;;;;;;13.85;3.72;;;;;;;2.12;100.00;99443.66;5055547;28;20036;-73
2023/01/16 00:17:18;;;;;;;13.57;3.78;;;;;;;2.08;100.00;99433.19;5055442;28;20025;-73
2023/01/16 00:19:43;;;;;;;17.17;4.03;;;;;;;2.05;100.00;99429.63;5055551;28;20039;-78
2023/01/16 00:22:09;;;;;;;16.60;4.28;;;;;;;2.02;100.00;99430.44;5055631;28;20503;-73
2023/01/16 00:24:34;;;;;;;16.52;4.28;;;;;;;1.97;100.00;99419.09;5055379;28;20487;-78
2023/01/16 00:26:59;;;;;;;16.33;4.60;;;;;;;1.92;100.00;99418.13;5055746;28;20057;-73
2023/01/16 00:29:25;;;;;;;16.63;4.57;;;;;;;1.90;100.00;99425.91;5055270;28;20029;-73
2023/01/16 00:31:50;;;;;;;17.48;4.70;;;;;;;1.95;100.00;99418.16;5055158;28;20028;-73
2023/01/16 00:34:15;;;;;;;18.27;5.07;;;;;;;1.92;100.00;99412.91;5055457;28;20472;-74
2023/01/16 00:36:41;;;;;;;17.70;5.00;;;;;;;1.96;100.00;99421.66;5055036;28;20025;-73
2023/01/16 00:39:06;;;;;;;19.95;5.30;;;;;;;1.93;100.00;99419.88;5055264;28;20040;-74
2023/01/16 00:41:32;;;;;;;20.15;5.50;;;;;;;1.91;100.00;99412.03;5054464;28;20025;-73
2023/01/16 00:43:58;;;;;;;20.08;5.53;;;;;;;1.93;100.00;99404.25;5054939;28;20431;-73
2023/01/16 00:46:25;;;;;;;19.65;5.00;;;;;;;1.96;100.00;99403.41;5055134;28;20480;-73
2023/01/16 00:48:50;;;;;;;19.98;5.45;;;;;;;1.96;100.00;99399.06;5054842;28;20045;-92
2023/01/16 00:51:15;;;;;;;21.10;5.47;;;;;;;1.94;100.00;99399.91;5054945;28;20033;-91
2023/01/16 00:53:41;;;;;;;18.63;5.20;;;;;;;1.90;100.00;99389.41;5054966;28;20032;-93
2023/01/16 00:56:07;;;;;;;18.67;5.10;;;;;;;1.94;100.00;99389.47;5054789;28;20442;-84
2023/01/16 00:58:32;;;;;;;19.63;4.93;;;;;;;1.88;100.00;99385.94;5054808;28;20029;-84
2023/01/16 01:00:59;;;;;;;17.10;4.80;;;;;;;1.89;100.00;99378.97;5037407;28;20143;-89
2023/01/16 01:03:24;;;;;;;20.20;4.60;;;;;;;1.86;100.00;99369.38;5054696;28;20496;-75
2023/01/16 01:05:49;;;;;;;18.95;4.57;;;;;;;1.81;100.00;99362.34;5036803;28;20052;-74
2023/01/16 01:08:15;;;;;;;19.55;4.60;;;;;;;1.82;100.00;99364.09;5054610;28;20040;-75
2023/01/16 01:10:40;;;;;;;19.88;4.53;;;;;;;1.89;100.00;99358.13;5054565;28;20075;-75
2023/01/16 01:13:07;;;;;;;20.23;4.32;;;;;;;1.83;100.00;99348.47;5054757;28;20116;-74
2023/01/16 01:15:32;;;;;;;19.42;4.25;;;;;;;1.83;100.00;99360.63;5054659;28;20029;-77
2023/01/16 01:17:57;;;;;;;20.67;4.45;;;;;;;1.76;100.00;99348.38;5054481;28;20033;-92
2023/01/16 01:20:23;;;;;;;19.17;4.40;;;;;;;1.73;100.00;99344.88;5054523;28;20032;-92
2023/01/16 01:22:49;;;;;;;19.70;4.20;;;;;;;1.72;100.00;99343.09;5054605;28;20028;-93
2023/01/16 01:25:14;;;;;;;18.63;4.35;;;;;;;1.68;100.00;99340.44;5054248;28;20115;-92
2023/01/16 01:27:40;;;;;;;18.52;4.28;;;;;;;1.67;100.00;99336.06;5036622;28;20071;-75
2023/01/16 01:30:06;;;;;;;19.02;4.10;;;;;;;1.61;100.00;99326.41;5054187;28;20029;-74
2023/01/16 01:32:31;;;;;;;18.90;4.40;;;;;;;1.62;100.00;99320.38;5036335;28;20396;-74
2023/01/16 01:34:58;;;;;;;19.73;4.20;;;;;;;1.56;100.00;99315.94;5036324;28;20029;-73
2023/01/16 01:37:24;;;;;;;19.88;4.10;;;;;;;1.50;100.00;99309.72;5053855;28;20095;-74
2023/01/16 01:39:50;;;;;;;18.58;4.10;;;;;;;1.43;100.00;99294.84;5053824;28;20037;-73
2023/01/16 01:45:22;;;;;;;19.98;4.22;;;;;;;1.37;100.00;99293.03;5054325;28;20095;-73
2023/01/16 01:47:51;;;;;;;17.92;3.85;;;;;;;1.36;100.00;99281.72;5051781;28;20066;-73
2023/01/16 01:50:46;;;;;;;20.02;4.13;;;;;;;1.31;100.00;99273.00;5054009;28;20041;-74
2023/01/16 01:53:24;;;;;;;21.90;4.15;;;;;;;1.29;100.00;99266.84;5051002;28;20031;-74
2023/01/16 01:55:51;;;;;;;18.75;3.95;;;;;;;1.28;100.00;99259.91;5053901;28;20032;-73
2023/01/16 01:58:22;;;;;;;18.73;3.90;;;;;;;1.29;100.00;99258.19;5053643;28;20108;-74
2023/01/16 02:00:50;;;;;;;20.27;4.30;;;;;;;1.27;100.00;99250.34;5053382;28;20025;-74
2023/01/16 02:03:25;;;;;;;18.52;4.13;;;;;;;1.27;100.00;99239.03;5053724;28;20480;-74
2023/01/16 02:05:54;;;;;;;17.45;4.20;;;;;;;1.25;100.00;99236.41;5053452;28;20468;-74
2023/01/16 02:08:24;;;;;;;20.65;5.30;;;;;;;1.28;100.00;99230.38;5053449;28;20033;-74
2023/01/16 02:10:56;;;;;;;24.70;9.02;;;;;;;1.25;100.00;99230.34;5053428;28;20029;-74
2023/01/16 02:13:22;;;;;;;23.08;10.80;;;;;;;1.25;100.00;99226.00;5053508;28;20391;-74
2023/01/16 02:21:20;;;;;;;22.60;7.07;;;;;;;1.33;100.00;99207.91;5050559;28;20435;-74
2023/01/16 02:24:01;;;;;;;19.45;5.22;;;;;;;1.29;100.00;99206.97;5053129;28;20029;-74
2023/01/16 02:26:44;;;;;;;21.02;5.50;;;;;;;1.32;100.00;99199.22;5053002;28;20112;-74
2023/01/16 02:29:42;;;;;;;19.30;4.57;;;;;;;1.32;100.00;99200.94;5049659;28;20033;-74
2023/01/16 02:32:21;;;;;;;20.80;4.55;;;;;;;1.29;100.00;99180.94;5049177;28;20021;-74
2023/01/16 02:35:11;;;;;;;18.67;4.13;;;;;;;1.27;100.00;99177.44;5050499;28;20028;-74
2023/01/16 02:37:53;;;;;;;19.67;4.28;;;;;;;1.24;100.00;99164.38;5049137;28;20399;-73
2023/01/16 02:40:43;;;;;;;19.47;4.27;;;;;;;1.24;100.00;99155.69;5032727;28;20029;-74
2023/01/16 02:43:49;;;;;;;21.33;4.03;;;;;;;1.23;100.00;99144.41;5049233;28;20298;-79
2023/01/16 02:46:20;;;;;;;17.60;4.30;;;;;;;1.23;100.00;99133.13;4982698;28;20042;-73
2023/01/16 02:48:56;;;;;;;17.63;3.92;;;;;;;1.17;100.00;99126.97;4980719;28;20041;-74
2023/01/16 02:52:08;;;;;;;22.27;4.35;;;;;;;1.11;100.00;99113.88;5020582;28;20119;-74
2023/01/16 02:54:41;;;;;;;17.65;4.00;;;;;;;1.09;100.00;99088.66;4971914;28;20030;-74
2023/01/16 02:57:12;;;;;;;18.83;4.18;;;;;;;1.10;100.00;99101.69;5044380;28;20048;-76
2023/01/16 02:59:41;;;;;;;17.85;4.18;;;;;;;1.05;100.00;99098.16;5049016;28;20447;-78
2023/01/16 03:02:07;;;;;;;18.20;4.15;;;;;;;1.04;100.00;99081.66;5049097;28;20075;-75
2023/01/16 03:04:40;;;;;;;19.95;4.30;;;;;;;1.00;100.00;99074.66;5052233;28;20472;-74
2023/01/16 03:07:20;;;;;;;20.15;4.30;;;;;;;1.04;100.00;99076.44;5048711;28;20025;-79
2023/01/16 03:10:16;;;;;;;18.80;4.10;;;;;;;1.02;100.00;99061.66;5049676;28;20132;-74
2023/01/16 03:12:44;;;;;;;20.15;4.10;;;;;;;1.02;100.00;99059.06;5049356;28;20029;-74
2023/01/16 03:15:14;;;;;;;18.15;3.58;;;;;;;1.04;100.00;99060.81;5052307;28;20388;-74
2023/01/16 03:17:58;;;;;;;15.85;3.72;;;;;;;1.02;100.00;99044.34;5052590;28;20021;-74
2023/01/16 03:20:29;;;;;;;15.98;3.30;;;;;;;1.09;100.00;99026.19;5050909;28;20043;-74
2023/01/16 03:23:17;;;;;;;19.33;3.97;;;;;;;1.06;100.00;99023.56;5052563;28;20037;-74
2023/01/16 03:25:55;;;;;;;19.38;3.60;;;;;;;1.06;100.00;99020.94;5049346;28;20029;-74
2023/01/16 03:28:48;;;;;;;16.80;3.72;;;;;;;1.10;100.00;99014.94;5052277;28;20472;-91
2023/01/16 03:31:24;;;;;;;17.10;3.40;;;;;;;1.11;100.00;99003.69;5049861;28;20414;-81
2023/01/16 03:34:10;;;;;;;18.88;3.70;;;;;;;1.10;100.00;99002.78;5052528;28;20098;-93
2023/01/16 03:36:45;;;;;;;16.05;3.40;;;;;;;1.10;100.00;98987.16;5048194;28;20115;-75
2023/01/16 03:39:14;;;;;;;16.75;3.75;;;;;;;1.13;100.00;98978.53;5048874;28;20099;-79
2023/01/16 03:41:43;;;;;;;18.73;3.85;;;;;;;1.16;100.00;98975.97;5052140;28;20025;-82
2023/01/16 03:44:15;;;;;;;20.73;3.92;;;;;;;1.18;100.00;98969.94;5052434;28;20056;-91
2023/01/16 03:46:47;;;;;;;18.65;3.90;;;;;;;1.19;100.00;98965.59;5048892;28;20021;-76
2023/01/16 03:49:18;;;;;;;19.08;3.78;;;;;;;1.19;100.00;98957.78;5052176;28;20551;-93
2023/01/16 03:51:47;;;;;;;20.10;3.80;;;;;;;1.23;100.00;98953.50;5052076;28;20060;-74
2023/01/16 03:54:25;;;;;;;19.35;3.80;;;;;;;1.25;100.00;98934.41;5052279;28;20024;-76
2023/01/16 03:57:03;;;;;;;17.27;3.60;;;;;;;1.26;100.00;98910.13;5052140;28;20033;-79
2023/01/16 03:59:29;;;;;;;17.02;3.50;;;;;;;1.30;100.00;98903.25;5051952;28;20029;-74
2023/01/16 04:02:02;;;;;;;15.98;3.30;;;;;;;1.35;100.00;98902.41;5051961;28;20090;-94
2023/01/16 04:04:42;;;;;;;17.40;3.65;;;;;;;1.33;100.00;98898.94;5052110;28;20535;-74
2023/01/16 04:07:20;;;;;;;18.52;3.67;;;;;;;1.36;100.00;98896.34;5048478;28;20028;-74
2023/01/16 04:09:57;;;;;;;19.98;3.80;;;;;;;1.39;100.00;98875.56;5049279;28;20044;-74
2023/01/16 04:12:28;;;;;;;19.20;4.00;;;;;;;1.42;100.00;98877.31;5051795;28;20090;-75
2023/01/16 04:15:02;;;;;;;20.42;3.95;;;;;;;1.38;100.00;98866.03;5051867;28;20078;-74
2023/01/16 04:17:29;;;;;;;17.83;4.00;;;;;;;1.35;100.00;98858.16;5052725;28;20043;-74
2023/01/16 04:19:55;;;;;;;19.20;4.13;;;;;;;1.35;100.00;98849.47;5037660;28;20035;-74
2023/01/16 04:22:25;;;;;;;19.15;4.00;;;;;;;1.35;100.00;98844.28;5055309;28;20396;-74
2023/01/16 04:24:52;;;;;;;17.52;3.75;;;;;;;1.37;100.00;98837.38;5055375;28;20029;-74
2023/01/16 04:27:18;;;;;;;19.00;4.40;;;;;;;1.39;100.00;98822.63;5055525;28;20388;-74
2023/01/16 04:29:44;;;;;;;18.33;4.25;;;;;;;1.38;100.00;98811.34;5055239;28;20111;-74
2023/01/16 04:32:09;;;;;;;20.10;4.10;;;;;;;1.39;100.00;98801.78;5055521;28;20117;-74
2023/01/16 04:34:35;;;;;;;18.90;4.20;;;;;;;1.39;100.00;98787.03;5055633;28;20036;-74
2023/01/16 04:37:00;;;;;;;18.60;4.22;;;;;;;1.42;100.00;98785.31;5037117;28;20033;-74
2023/01/16 04:39:25;;;;;;;20.38;4.38;;;;;;;1.44;100.00;98775.78;5054991;28;20029;-74
2023/01/16 04:41:51;;;;;;;18.58;4.38;;;;;;;1.45;100.00;98764.50;5055187;28;20098;-74
2023/01/16 04:44:17;;;;;;;17.90;4.03;;;;;;;1.45;100.00;98754.09;5054970;28;20079;-74
2023/01/16 04:46:42;;;;;;;20.50;4.40;;;;;;;1.45;100.00;98744.53;5054990;28;20029;-74
2023/01/16 04:49:08;;;;;;;18.63;4.18;;;;;;;1.48;100.00;98741.09;5055131;28;20380;-79
2023/01/16 04:51:35;;;;;;;20.55;4.70;;;;;;;1.55;100.00;98724.66;5054800;28;20385;-74
2023/01/16 04:54:01;;;;;;;19.15;4.40;;;;;;;1.54;100.00;98721.19;5054779;28;20037;-74
2023/01/16 04:56:27;;;;;;;19.50;4.15;;;;;;;1.56;100.00;98705.56;5054878;28;20066;-74
2023/01/16 04:58:53;;;;;;;18.40;4.03;;;;;;;1.61;100.00;98700.38;5054714;28;20395;-93
2023/01/16 05:01:19;;;;;;;16.40;3.92;;;;;;;1.64;100.00;98688.22;5054870;28;20033;-92
2023/01/16 05:03:44;;;;;;;20.35;4.40;;;;;;;1.66;100.00;98668.28;5054961;28;20025;-74
2023/01/16 05:06:10;;;;;;;19.90;4.10;;;;;;;1.70;100.00;98676.97;5036823;28;20029;-74
2023/01/16 05:08:35;;;;;;;18.63;4.20;;;;;;;1.72;100.00;98670.94;5054576;28;20053;-78
2023/01/16 05:11:01;;;;;;;19.08;4.22;;;;;;;1.75;100.00;98654.44;5054585;28;20566;-74
2023/01/16 05:13:28;;;;;;;20.02;4.20;;;;;;;1.78;100.00;98646.63;5054505;28;20029;-74
2023/01/16 05:15:53;;;;;;;20.90;4.45;;;;;;;1.81;100.00;98644.03;5054627;28;20021;-86
2023/01/16 05:18:19;;;;;;;20.55;4.40;;;;;;;1.85;100.00;98637.09;5054371;28;20033;-74
2023/01/16 05:20:44;;;;;;;20.13;4.20;;;;;;;1.89;100.00;98631.03;5054222;28;20039;-93
2023/01/16 05:23:10;;;;;;;18.05;4.13;;;;;;;1.92;100.00;98618.91;5054670;28;20029;-93
2023/01/16 05:25:36;;;;;;;18.65;4.03;;;;;;;1.99;100.00;98617.19;5054490;28;20103;-74
2023/01/16 05:28:02;;;;;;;19.80;4.10;;;;;;;2.02;100.00;98604.16;5053761;28;20029;-74
2023/01/16 05:30:27;;;;;;;17.63;3.55;;;;;;;2.05;100.00;98590.25;5054360;28;20029;-74
2023/01/16 05:32:52;;;;;;;18.88;4.07;;;;;;;2.10;100.00;98585.94;5054133;28;20116;-93
2023/01/16 05:35:21;;;;;;;19.08;3.72;;;;;;;2.12;100.00;98571.16;5054205;28;20047;-74
2023/01/16 05:37:46;;;;;;;18.58;3.90;;;;;;;2.15;100.00;98560.75;5054469;28;20067;-74
2023/01/16 05:40:13;;;;;;;19.85;3.92;;;;;;;2.20;100.00;98540.78;5054182;28;20060;-86
2023/01/16 05:42:41;;;;;;;17.45;3.90;;;;;;;2.19;100.00;98532.97;5054237;28;20083;-91
2023/01/16 05:45:07;;;;;;;17.90;3.70;;;;;;;2.21;100.00;98529.50;5050044;28;20021;-81
2023/01/16 05:47:32;;;;;;;18.85;3.65;;;;;;;2.19;100.00;98519.94;5053870;28;20091;-77
2023/01/16 05:49:58;;;;;;;17.95;3.70;;;;;;;2.25;100.00;98504.28;5053791;28;20025;-93
2023/01/16 05:52:25;;;;;;;17.40;3.70;;;;;;;2.28;100.00;98506.88;5054035;28;20021;-91
2023/01/16 05:54:51;;;;;;;15.07;3.38;;;;;;;2.30;100.00;98491.25;5053778;28;20075;-77
2023/01/16 05:57:16;;;;;;;14.68;3.63;;;;;;;2.32;100.00;98493.00;5053645;28;20029;-74
2023/01/16 05:59:45;;;;;;;13.30;3.15;;;;;;;2.37;100.00;98492.97;5035942;28;20116;-74
2023/01/16 06:02:11;;;;;;;14.98;3.35;;;;;;;2.37;100.00;98488.63;5053587;28;20064;-74
2023/01/16 06:04:36;;;;;;;17.17;3.28;;;;;;;2.37;100.00;98480.81;5049328;28;20033;-79
2023/01/16 06:07:02;;;;;;;16.70;3.28;;;;;;;2.38;100.00;98479.94;5053707;28;20443;-79
2023/01/16 06:09:27;;;;;;;16.80;3.20;;;;;;;2.38;100.00;98473.88;5053187;28;20045;-74
2023/01/16 06:11:52;;;;;;;14.82;3.30;;;;;;;2.38;100.00;98473.88;5053600;28;20053;-74
2023/01/16 06:14:18;;;;;;;16.08;3.05;;;;;;;2.41;100.00;98474.72;5053597;28;20499;-74
2023/01/16 06:16:44;;;;;;;14.95;3.30;;;;;;;2.38;100.00;98461.69;5053303;28;20384;-74
2023/01/16 06:19:09;;;;;;;13.27;3.10;;;;;;;2.36;100.00;98453.00;5053436;28;20025;-80
2023/01/16 06:21:35;;;;;;;15.10;3.17;;;;;;;2.34;100.00;98448.66;5053003;28;20035;-74
2023/01/16 06:24:00;;;;;;;16.83;3.30;;;;;;;2.33;100.00;98439.09;5053094;28;20033;-79
2023/01/16 06:26:25;;;;;;;14.88;3.20;;;;;;;2.32;100.00;98438.22;5053281;28;20037;-74
2023/01/16 06:28:51;;;;;;;15.55;3.05;;;;;;;2.32;100.00;98435.63;5053053;28;20064;-74
2023/01/16 06:31:16;;;;;;;15.52;3.38;;;;;;;2.33;100.00;98426.94;5052963;28;20056;-74
2023/01/16 06:33:42;;;;;;;17.08;3.65;;;;;;;2.33;100.00;98419.13;5053075;28;20034;-82
2023/01/16 06:36:07;;;;;;;15.82;3.30;;;;;;;2.34;100.00;98401.72;5051659;28;20536;-81
2023/01/16 06:38:33;;;;;;;15.43;3.33;;;;;;;2.36;100.00;98403.47;5056534;28;20052;-79
2023/01/16 06:40:58;;;;;;;15.77;3.30;;;;;;;2.39;100.00;98397.38;5052454;28;20072;-80
2023/01/16 06:43:27;;;;;;;16.60;3.30;;;;;;;2.35;100.00;98386.06;5052170;28;20025;-79
2023/01/16 06:45:53;;;;;;;15.07;3.65;;;;;;;2.36;100.00;98366.97;5034717;28;20388;-80
2023/01/16 06:48:19;;;;;;;14.95;3.40;;;;;;;2.39;100.00;98353.91;5053627;28;20025;-80
2023/01/16 06:50:45;;;;;;;16.70;3.10;;;;;;;2.41;100.00;98331.28;5053646;28;20475;-80
2023/01/16 06:53:11;;;;;;;14.85;2.95;;;;;;;2.43;100.00;98316.53;5052763;28;20154;-79
2023/01/16 06:55:37;;;;;;;13.43;3.10;;;;;;;2.42;100.00;98309.56;5056868;28;20108;-79
2023/01/16 06:58:02;;;;;;;15.60;3.30;;;;;;;2.44;100.00;98310.41;5051907;28;20033;-77
2023/01/16 07:00:28;;;;;;;12.52;3.10;;;;;;;2.42;100.00;98304.34;5055373;28;20043;-75
2023/01/16 07:02:55;;;;;;;14.38;3.10;;;;;;;2.42;100.00;98293.91;5055399;28;20530;-85
2023/01/16 07:05:25;;;;;;;14.25;3.00;;;;;;;2.41;100.00;98280.88;5051391;28;20082;-80
2023/01/16 07:07:51;;;;;;;18.13;3.33;;;;;;;2.38;100.00;98266.13;5051968;28;20490;-75
2023/01/16 07:10:17;;;;;;;14.48;3.03;;;;;;;2.40;100.00;98264.38;5051586;28;20045;-78
2023/01/16 07:12:42;;;;;;;13.18;3.20;;;;;;;2.41;100.00;98260.03;5056296;28;20028;-80
2023/01/16 07:23:26;;;;;;;12.73;2.90;;;;;;;2.48;100.00;98200.91;5051316;28;20121;-80
2023/01/16 07:25:53;;;;;;;12.32;2.90;;;;;;;2.46;100.00;98202.63;5052316;28;20028;-82
2023/01/16 07:28:20;;;;;;;15.55;3.10;;;;;;;2.44;100.00;98184.38;5052570;28;20049;-84
2023/01/16 07:30:47;;;;;;;12.85;3.10;;;;;;;2.45;100.00;98186.13;5052620;28;20032;-75
2023/01/16 07:33:13;;;;;;;13.45;3.00;;;;;;;2.46;100.00;98187.84;5051821;28;20033;-80
2023/01/16 07:35:38;;;;;;;15.75;3.20;;;;;;;2.44;100.00;98181.78;5055713;28;20437;-78
2023/01/16 07:38:03;;;;;;;13.13;3.05;;;;;;;2.46;100.00;98169.59;5054282;28;20025;-76
2023/01/16 07:40:29;;;;;;;13.57;3.03;;;;;;;2.45;100.00;98167.88;5054736;28;20124;-83
2023/01/16 07:42:54;;;;;;;14.45;3.00;;;;;;;2.41;100.00;98167.00;5052682;28;20121;-75
2023/01/16 07:45:20;;;;;;;12.48;3.05;;;;;;;2.48;100.00;98159.16;5053800;28;20387;-75
2023/01/16 07:47:45;;;;;;;14.48;3.20;;;;;;;2.47;100.00;98154.81;5050364;28;20431;-76
2023/01/16 07:50:11;;;;;;;15.38;3.20;;;;;;;2.49;100.00;98150.44;5051074;28;20477;-74
2023/01/16 07:52:36;;;;;;;13.32;3.22;;;;;;;2.46;100.00;98150.47;5054691;28;20430;-75
2023/01/16 07:55:02;;;;;;;15.52;3.20;;;;;;;2.47;100.00;98145.25;5059581;28;20029;-75
2023/01/16 07:57:27;;;;;;;14.18;3.08;;;;;;;2.49;100.00;98126.97;5054973;28;20456;-75
2023/01/16 07:59:53;;;;;;;14.38;3.10;;;;;;;2.50;100.00;98129.56;5060298;28;20029;-74
2023/01/16 08:02:19;;;;;;;16.45;3.40;;;;;;;2.51;100.00;98114.81;5054661;28;20060;-76
2023/01/16 08:04:44;;;;;;;16.20;3.25;;;;;;;2.50;100.00;98100.88;5059052;28;20032;-80
2023/01/16 08:07:09;;;;;;;12.55;3.10;;;;;;;2.48;100.00;98092.22;5037919;28;20105;-74
2023/01/16 08:09:35;;;;;;;14.45;3.25;;;;;;;2.53;100.00;98092.19;5057238;28;20045;-76
2023/01/16 08:12:00;;;;;;;15.18;3.03;;;;;;;2.50;100.00;98084.38;5055852;28;20468;-74
2023/01/16 08:14:25;;;;;;;15.98;3.33;;;;;;;2.54;100.00;98073.06;5054192;28;20098;-76
2023/01/16 08:16:52;;;;;;;14.02;3.20;;;;;;;2.53;100.00;98073.94;5056039;28;20029;-84
2023/01/16 08:19:17;;;;;;;16.83;3.65;;;;;;;2.55;100.00;98073.03;5036954;28;20515;-88
2023/01/16 08:21:43;;;;;;;15.60;3.20;;;;;;;2.57;100.00;98065.22;5055784;28;20033;-86
2023/01/16 08:24:09;;;;;;;16.20;3.40;;;;;;;2.56;100.00;98056.53;5056121;28;20082;-78
2023/01/16 08:26:35;;;;;;;13.27;3.15;;;;;;;2.55;100.00;98057.41;5056475;28;20212;-77
2023/01/16 08:29:02;;;;;;;13.57;3.10;;;;;;;2.56;100.00;98053.03;5056252;28;20029;-87
2023/01/16 08:31:28;;;;;;;12.95;3.20;;;;;;;2.56;100.00;98045.22;5054474;28;20387;-73
2023/01/16 08:33:53;;;;;;;16.00;3.38;;;;;;;2.59;100.00;98033.03;5059914;28;20029;-74
2023/01/16 08:36:20;;;;;;;14.90;3.35;;;;;;;2.60;100.00;98026.06;5053619;28;20036;-86
2023/01/16 08:38:49;;;;;;;11.63;3.15;;;;;;;2.66;100.00;98014.69;5056900;28;20033;-82
2023/01/16 08:52:20;;;;;;;12.75;3.20;;;;;;;2.64;100.00;98011.25;5054170;28;20045;-74
2023/01/16 08:54:46;;;;;;;14.43;3.28;;;;;;;2.65;100.00;98013.84;5054482;28;20391;-73
2023/01/16 08:57:11;;;;;;;14.20;3.40;;;;;;;2.64;100.00;97999.06;5054671;28;20537;-88
2023/01/16 08:59:37;;;;;;;12.68;3.40;;;;;;;2.66;100.00;98002.50;5054772;28;20472;-86
2023/01/16 09:02:04;;;;;;;15.48;3.50;;;;;;;2.68;100.00;98012.94;5054706;28;20040;-88
2023/01/16 09:04:30;;;;;;;14.75;3.50;;;;;;;2.67;100.00;98008.63;5036197;28;20033;-87
2023/01/16 09:06:55;;;;;;;14.07;3.30;;;;;;;2.66;100.00;97993.84;5054864;28;20040;-75
2023/01/16 09:09:21;;;;;;;11.98;3.47;;;;;;;2.66;100.00;98004.28;5054336;28;20131;-86
2023/01/16 09:14:37;;;;;;;9.98;3.00;;;;;;;2.62;100.00;97990.38;5052920;28;20052;-84
2023/01/16 09:17:02;;;;;;;10.07;2.70;;;;;;;2.60;100.00;97990.38;5054601;28;20025;-84
2023/01/16 09:19:27;;;;;;;7.90;2.60;;;;;;;2.57;100.00;97990.41;5054333;28;20029;-78
2023/01/16 09:21:53;;;;;;;8.20;2.60;;;;;;;2.59;100.00;97986.06;5054227;28;20068;-80
2023/01/16 09:24:18;;;;;;;7.35;2.65;;;;;;;2.58;100.00;97983.47;5050455;28;20056;-73
2023/01/16 09:26:43;;;;;;;7.18;2.60;;;;;;;2.56;100.00;97974.78;5054296;28;20132;-73
2023/01/16 09:29:09;;;;;;;10.20;2.70;;;;;;;2.58;100.00;97980.88;5036346;28;20033;-75
2023/01/16 09:31:34;;;;;;;5.35;2.50;;;;;;;2.60;100.00;97979.09;5054421;28;20029;-73
2023/01/16 09:33:59;;;;;;;5.57;2.30;;;;;;;2.60;100.00;97969.53;5054199;28;20025;-78
2023/01/16 09:36:25;;;;;;;7.07;2.50;;;;;;;2.61;100.00;97970.41;5036229;28;20035;-73
2023/01/16 09:38:50;;;;;;;7.28;2.50;;;;;;;2.64;100.00;97972.13;5054268;28;20033;-73
2023/01/16 09:43:35;;;;;;;8.57;2.58;;;;;;;2.63;100.00;97975.59;5053896;28;20037;-73
2023/01/16 09:44:08;;;;;;;8.77;2.70;;;;;;;2.64;100.00;97966.91;5051852;28;20063;-73
2023/01/16 09:46:42;;;;;;;9.82;2.70;;;;;;;2.65;100.00;97961.69;5050869;28;20029;-79
2023/01/16 09:49:41;;;;;;;8.48;2.55;;;;;;;2.66;100.00;97959.94;5055951;28;20029;-78
2023/01/16 10:00:35;;;;;;;8.70;2.40;;;;;;;2.74;100.00;97943.31;5046200;28;20059;-77
2023/01/16 10:03:01;;;;;;;6.60;2.33;;;;;;;2.72;100.00;97937.25;5052744;28;20028;-78
2023/01/16 10:05:35;;;;;;;4.75;2.20;;;;;;;2.76;100.00;97948.50;5054606;28;20029;-75
2023/01/16 10:08:18;;;;;;;6.80;2.30;;;;;;;2.81;100.00;97936.31;5050596;28;20087;-80
2023/01/16 10:10:59;;;;;;;6.28;2.40;;;;;;;2.92;100.00;97934.41;5050893;28;20128;-77
2023/01/16 10:14:03;;;;;;;7.45;2.50;;;;;;;3.03;100.00;97920.38;5036500;28;20033;-78
2023/01/16 10:16:54;;;;;;;7.45;2.40;;;;;;;3.20;100.00;97923.63;5056820;28;20053;-77
2023/01/16 10:19:22;;;;;;;8.05;2.60;;;;;;;3.30;100.00;97919.19;5052006;28;20032;-78
2023/01/16 10:22:23;;;;;;;7.25;2.20;;;;;;;3.39;100.00;97911.22;5056128;28;20033;-78
2023/01/16 10:24:57;;;;;;;7.97;2.33;;;;;;;3.52;100.00;97911.06;5034423;28;20120;-77
2023/01/16 10:27:41;;;;;;;4.65;2.10;;;;;;;3.48;100.00;97898.03;5052317;28;20545;-78
2023/01/16 10:30:14;;;;;;;8.80;2.30;;;;;;;3.46;100.00;97894.56;5052168;28;20074;-78
2023/01/16 10:32:45;;;;;;;8.10;2.28;;;;;;;3.48;100.00;97884.97;5056704;28;20383;-78
2023/01/16 10:35:11;;;;;;;6.20;2.20;;;;;;;3.52;100.00;97879.72;5053896;28;20103;-79
2023/01/16 10:37:38;;;;;;;4.43;2.10;;;;;;;3.49;100.00;97873.66;5055008;28;20108;-78
2023/01/16 10:40:15;;;;;;;7.00;2.20;;;;;;;3.61;100.00;97874.34;5053664;28;20095;-77
2023/01/16 10:51:02;;;;;;;3.75;1.90;;;;;;;3.59;100.00;97857.84;5050766;28;20039;-74
2023/01/16 10:53:28;;;;;;;2.83;1.90;;;;;;;3.51;100.00;97851.84;5053163;28;20032;-74
2023/01/16 10:55:55;;;;;;;3.50;1.90;;;;;;;3.46;100.00;97844.94;5052597;28;20048;-74
2023/01/16 10:58:26;;;;;;;3.58;1.90;;;;;;;3.53;100.00;97832.66;5051391;28;20028;-85
2023/01/16 11:00:55;;;;;;;4.43;1.90;;;;;;;3.52;100.00;97832.69;5052752;28;20025;-77
2023/01/16 11:03:31;;;;;;;4.90;1.90;;;;;;;3.48;100.00;97824.03;5052039;28;20029;-74
2023/01/16 11:06:20;;;;;;;5.18;1.80;;;;;;;3.41;100.00;97823.28;5052536;28;20414;-73
2023/01/16 11:08:53;;;;;;;3.70;1.80;;;;;;;3.45;100.00;97816.25;5046956;28;20040;-76
2023/01/16 11:20:17;;;;;;;6.15;1.90;;;;;;;3.72;100.00;97783.59;5051029;28;20064;-77
2023/01/16 11:22:47;;;;;;;3.95;1.80;;;;;;;3.75;100.00;97767.88;5051556;28;20037;-77
2023/01/16 11:25:18;;;;;;;4.72;1.90;;;;;;;3.77;100.00;97763.50;5051210;28;20424;-76
2023/01/16 11:27:44;;;;;;;4.57;1.80;;;;;;;3.79;100.00;97760.84;5060484;28;20033;-75
2023/01/16 11:30:20;;;;;;;2.92;1.83;;;;;;;3.79;100.00;97760.84;5058089;28;20112;-75
2023/01/16 11:32:48;;;;;;;4.38;2.00;;;;;;;3.79;100.00;97751.25;5064823;28;20021;-75
2023/01/16 11:35:16;;;;;;;6.13;1.90;;;;;;;3.81;100.00;97749.47;5058190;28;20108;-77
2023/01/16 11:37:44;;;;;;;3.42;1.80;;;;;;;3.81;100.00;97748.59;5059598;28;20064;-81
2023/01/16 11:40:18;;;;;;;3.25;1.70;;;;;;;3.79;100.00;97730.34;5058024;28;20491;-78
2023/01/16 11:48:25;;;;;;;5.25;1.90;;;;;;;3.71;100.00;97718.31;5055039;28;20064;-82
2023/01/16 11:50:54;;;;;;;2.60;1.88;;;;;;;3.67;100.00;97714.91;5042209;28;20468;-75
2023/01/16 11:53:20;;;;;;;4.45;1.90;;;;;;;3.67;100.00;97712.28;5057984;28;20033;-75
2023/01/16 11:55:54;;;;;;;4.60;1.90;;;;;;;3.61;100.00;97709.75;5057932;28;20048;-75
2023/01/16 11:58:33;;;;;;;3.00;1.90;;;;;;;3.64;100.00;97701.88;5057665;28;20021;-77
2023/01/16 12:01:19;;;;;;;4.10;1.90;;;;;;;3.60;100.00;97692.38;5055703;28;20036;-76
2023/01/16 12:03:51;;;;;;;6.07;2.00;;;;;;;3.63;100.00;97700.16;5059606;28;20032;-75
2023/01/16 12:06:23;;;;;;;7.70;2.20;;;;;;;3.63;100.00;97679.25;5057335;28;20033;-76
2023/01/16 12:09:04;;;;;;;5.33;2.00;;;;;;;3.64;100.00;97680.97;5063642;28;20106;-77
2023/01/16 12:11:36;;;;;;;6.82;2.20;;;;;;;3.74;100.00;97672.09;5057815;28;20112;-78
2023/01/16 12:14:32;;;;;;;3.83;2.05;;;;;;;3.82;100.00;97664.09;5054706;28;20031;-74
2023/01/16 12:17:19;;;;;;;5.13;2.10;;;;;;;3.88;100.00;97666.59;5057706;28;20033;-74
2023/01/16 12:20:08;;;;;;;5.32;2.08;;;;;;;3.86;100.00;97657.94;5059541;28;20471;-75
2023/01/16 12:22:40;;;;;;;4.75;2.15;;;;;;;3.84;100.00;97657.09;5060018;28;20476;-75
2023/01/16 12:25:22;;;;;;;3.78;2.00;;;;;;;3.81;100.00;97660.63;5053983;28;20383;-74
2023/01/16 12:27:59;;;;;;;5.53;2.30;;;;;;;3.79;100.00;97651.94;5041293;28;20056;-75
2023/01/16 12:30:50;;;;;;;4.55;2.03;;;;;;;3.86;100.00;97652.72;5057810;28;20040;-73
2023/01/16 12:33:57;;;;;;;5.50;2.00;;;;;;;3.87;100.00;97637.88;5066854;28;20028;-73
2023/01/16 12:36:22;;;;;;;4.22;1.95;;;;;;;4.00;100.00;97637.63;5055641;28;20495;-86
2023/01/16 12:39:07;;;;;;;3.92;2.00;;;;;;;4.10;100.00;97632.19;5056040;28;20040;-86
2023/01/16 12:45:09;;;;;;;2.92;1.80;;;;;;;4.40;100.00;97621.94;5051428;28;20094;-80